sensor_id;sensor_type;location;lat;lon;timestamp;P1;durP1;ratioP1;P2;durP2;ratioP2
48361;SDS011;34510;51.888;5.670;2022-12-08T00:03:44;222.27;;;174.68;;
48361;SDS011;34510;51.888;5.670;2022-12-08T00:08:47;211.70;;;165.55;;
48361;SDS011;34510;51.888;5.670;2022-12-08T00:14:08;112.45;;;102.20;;
48361;SDS011;34510;51.888;5.670;2022-12-08T00:19:10;121.57;;;108.78;;
48361;SDS011;34510;51.888;5.670;2022-12-08T00:24:12;220.77;;;166.85;;
48361;SDS011;34510;51.888;5.670;2022-12-08T00:29:14;182.68;;;155.68;;
48361;SDS011;34510;51.888;5.670;2022-12-08T00:34:18;323.17;;;193.70;;
48361;SDS011;34510;51.888;5.670;2022-12-08T00:39:20;231.25;;;180.45;;
48361;SDS011;34510;51.888;5.670;2022-12-08T00:44:22;252.43;;;176.85;;
48361;SDS011;34510;51.888;5.670;2022-12-08T00:49:24;208.85;;;159.25;;
48361;SDS011;34510;51.888;5.670;2022-12-08T00:54:26;261.05;;;177.05;;
48361;SDS011;34510;51.888;5.670;2022-12-08T00:59:28;220.30;;;167.25;;
48361;SDS011;34510;51.888;5.670;2022-12-08T01:04:30;247.88;;;186.38;;
48361;SDS011;34510;51.888;5.670;2022-12-08T01:09:32;222.43;;;170.93;;
48361;SDS011;34510;51.888;5.670;2022-12-08T01:14:35;323.23;;;192.55;;
48361;SDS011;34510;51.888;5.670;2022-12-08T01:19:38;295.73;;;201.43;;
48361;SDS011;34510;51.888;5.670;2022-12-08T01:24:40;216.50;;;176.93;;
48361;SDS011;34510;51.888;5.670;2022-12-08T01:29:41;231.60;;;173.23;;
48361;SDS011;34510;51.888;5.670;2022-12-08T01:34:43;175.13;;;146.68;;
48361;SDS011;34510;51.888;5.670;2022-12-08T01:39:45;200.77;;;167.57;;
48361;SDS011;34510;51.888;5.670;2022-12-08T01:45:00;172.70;;;154.05;;
48361;SDS011;34510;51.888;5.670;2022-12-08T01:50:05;185.38;;;155.02;;
48361;SDS011;34510;51.888;5.670;2022-12-08T01:55:13;213.45;;;157.93;;
48361;SDS011;34510;51.888;5.670;2022-12-08T02:00:21;199.13;;;175.27;;
48361;SDS011;34510;51.888;5.670;2022-12-08T02:05:25;215.75;;;167.38;;
48361;SDS011;34510;51.888;5.670;2022-12-08T02:10:31;263.20;;;186.57;;
48361;SDS011;34510;51.888;5.670;2022-12-08T02:15:37;240.73;;;169.82;;
48361;SDS011;34510;51.888;5.670;2022-12-08T02:20:56;162.98;;;139.60;;
48361;SDS011;34510;51.888;5.670;2022-12-08T02:31:56;178.82;;;152.30;;
48361;SDS011;34510;51.888;5.670;2022-12-08T02:37:06;204.65;;;180.20;;
48361;SDS011;34510;51.888;5.670;2022-12-08T02:47:40;160.25;;;142.90;;
48361;SDS011;34510;51.888;5.670;2022-12-08T02:52:44;127.47;;;114.45;;
48361;SDS011;34510;51.888;5.670;2022-12-08T03:03:13;66.57;;;61.58;;
48361;SDS011;34510;51.888;5.670;2022-12-08T03:14:16;105.47;;;96.07;;
48361;SDS011;34510;51.888;5.670;2022-12-08T03:19:20;121.75;;;110.20;;
48361;SDS011;34510;51.888;5.670;2022-12-08T03:24:25;125.15;;;113.28;;
48361;SDS011;34510;51.888;5.670;2022-12-08T03:29:27;147.90;;;132.52;;
48361;SDS011;34510;51.888;5.670;2022-12-08T03:34:30;142.10;;;127.40;;
48361;SDS011;34510;51.888;5.670;2022-12-08T03:39:32;174.45;;;150.20;;
48361;SDS011;34510;51.888;5.670;2022-12-08T03:44:34;152.60;;;136.68;;
48361;SDS011;34510;51.888;5.670;2022-12-08T03:49:36;130.27;;;117.38;;
48361;SDS011;34510;51.888;5.670;2022-12-08T03:54:38;106.93;;;97.50;;
48361;SDS011;34510;51.888;5.670;2022-12-08T03:59:40;110.03;;;100.28;;
48361;SDS011;34510;51.888;5.670;2022-12-08T04:04:42;92.97;;;85.47;;
48361;SDS011;34510;51.888;5.670;2022-12-08T04:09:44;89.70;;;82.07;;
48361;SDS011;34510;51.888;5.670;2022-12-08T04:14:46;114.45;;;104.35;;
48361;SDS011;34510;51.888;5.670;2022-12-08T04:19:48;117.93;;;107.45;;
48361;SDS011;34510;51.888;5.670;2022-12-08T04:24:50;124.55;;;112.45;;
48361;SDS011;34510;51.888;5.670;2022-12-08T04:29:52;105.30;;;95.93;;
48361;SDS011;34510;51.888;5.670;2022-12-08T04:34:54;130.05;;;116.85;;
48361;SDS011;34510;51.888;5.670;2022-12-08T04:39:56;113.90;;;103.45;;
48361;SDS011;34510;51.888;5.670;2022-12-08T04:44:58;125.20;;;113.13;;
48361;SDS011;34510;51.888;5.670;2022-12-08T04:49:59;139.13;;;125.75;;
48361;SDS011;34510;51.888;5.670;2022-12-08T04:55:02;142.85;;;128.38;;
48361;SDS011;34510;51.888;5.670;2022-12-08T05:00:04;151.50;;;134.55;;
48361;SDS011;34510;51.888;5.670;2022-12-08T05:05:07;8.38;;;6.40;;
48361;SDS011;34510;51.888;5.670;2022-12-08T05:10:10;11.48;;;8.07;;
48361;SDS011;34510;51.888;5.670;2022-12-08T05:15:12;4.95;;;3.33;;
48361;SDS011;34510;51.888;5.670;2022-12-08T05:20:14;22.92;;;20.65;;
48361;SDS011;34510;51.888;5.670;2022-12-08T05:25:16;11.80;;;10.30;;
48361;SDS011;34510;51.888;5.670;2022-12-08T05:30:18;12.45;;;7.22;;
48361;SDS011;34510;51.888;5.670;2022-12-08T05:35:20;6.10;;;3.15;;
48361;SDS011;34510;51.888;5.670;2022-12-08T05:40:22;26.70;;;23.92;;
48361;SDS011;34510;51.888;5.670;2022-12-08T05:45:23;5.75;;;5.07;;
48361;SDS011;34510;51.888;5.670;2022-12-08T05:50:25;4.00;;;2.78;;
48361;SDS011;34510;51.888;5.670;2022-12-08T05:55:30;6.50;;;5.05;;
48361;SDS011;34510;51.888;5.670;2022-12-08T06:00:32;5.90;;;3.83;;
48361;SDS011;34510;51.888;5.670;2022-12-08T06:05:37;10.27;;;6.82;;
48361;SDS011;34510;51.888;5.670;2022-12-08T06:10:40;9.38;;;4.57;;
48361;SDS011;34510;51.888;5.670;2022-12-08T06:15:43;10.00;;;4.65;;
48361;SDS011;34510;51.888;5.670;2022-12-08T06:20:45;3.75;;;2.40;;
48361;SDS011;34510;51.888;5.670;2022-12-08T06:25:48;6.93;;;4.25;;
48361;SDS011;34510;51.888;5.670;2022-12-08T06:30:50;9.75;;;5.40;;
48361;SDS011;34510;51.888;5.670;2022-12-08T06:35:52;13.75;;;6.35;;
48361;SDS011;34510;51.888;5.670;2022-12-08T06:40:54;12.70;;;7.28;;
48361;SDS011;34510;51.888;5.670;2022-12-08T06:45:56;9.40;;;6.93;;
48361;SDS011;34510;51.888;5.670;2022-12-08T06:51:06;4.82;;;2.88;;
48361;SDS011;34510;51.888;5.670;2022-12-08T06:56:12;4.78;;;2.50;;
48361;SDS011;34510;51.888;5.670;2022-12-08T07:01:16;7.93;;;5.00;;
48361;SDS011;34510;51.888;5.670;2022-12-08T07:06:19;13.75;;;4.97;;
48361;SDS011;34510;51.888;5.670;2022-12-08T07:11:23;8.18;;;4.47;;
48361;SDS011;34510;51.888;5.670;2022-12-08T07:16:25;8.50;;;6.10;;
48361;SDS011;34510;51.888;5.670;2022-12-08T07:21:27;7.20;;;3.33;;
48361;SDS011;34510;51.888;5.670;2022-12-08T07:26:29;6.85;;;3.88;;
48361;SDS011;34510;51.888;5.670;2022-12-08T07:31:31;4.53;;;3.38;;
48361;SDS011;34510;51.888;5.670;2022-12-08T07:36:33;2.25;;;1.23;;
48361;SDS011;34510;51.888;5.670;2022-12-08T07:41:35;4.13;;;2.45;;
48361;SDS011;34510;51.888;5.670;2022-12-08T07:46:37;3.75;;;2.50;;
48361;SDS011;34510;51.888;5.670;2022-12-08T07:51:39;4.65;;;3.00;;
48361;SDS011;34510;51.888;5.670;2022-12-08T07:56:41;4.38;;;2.40;;
48361;SDS011;34510;51.888;5.670;2022-12-08T08:01:43;3.67;;;2.78;;
48361;SDS011;34510;51.888;5.670;2022-12-08T08:06:46;7.10;;;2.60;;
48361;SDS011;34510;51.888;5.670;2022-12-08T08:11:48;3.20;;;2.50;;
48361;SDS011;34510;51.888;5.670;2022-12-08T08:17:10;4.75;;;2.60;;
48361;SDS011;34510;51.888;5.670;2022-12-08T08:22:12;3.38;;;2.30;;
48361;SDS011;34510;51.888;5.670;2022-12-08T08:27:15;5.45;;;3.88;;
48361;SDS011;34510;51.888;5.670;2022-12-08T08:32:17;3.85;;;2.75;;
48361;SDS011;34510;51.888;5.670;2022-12-08T08:37:19;2.78;;;1.90;;
48361;SDS011;34510;51.888;5.670;2022-12-08T08:42:21;4.93;;;3.45;;
48361;SDS011;34510;51.888;5.670;2022-12-08T08:47:25;6.35;;;2.42;;
48361;SDS011;34510;51.888;5.670;2022-12-08T08:52:27;3.78;;;2.33;;
48361;SDS011;34510;51.888;5.670;2022-12-08T08:57:29;3.95;;;2.20;;
48361;SDS011;34510;51.888;5.670;2022-12-08T09:02:31;4.75;;;2.85;;
48361;SDS011;34510;51.888;5.670;2022-12-08T09:07:33;13.10;;;4.75;;
48361;SDS011;34510;51.888;5.670;2022-12-08T09:12:35;3.88;;;1.83;;
48361;SDS011;34510;51.888;5.670;2022-12-08T09:17:37;4.18;;;2.40;;
48361;SDS011;34510;51.888;5.670;2022-12-08T09:22:39;3.80;;;2.47;;
48361;SDS011;34510;51.888;5.670;2022-12-08T09:27:41;5.38;;;3.97;;
48361;SDS011;34510;51.888;5.670;2022-12-08T09:32:43;2.83;;;2.00;;
48361;SDS011;34510;51.888;5.670;2022-12-08T09:37:45;2.83;;;2.00;;
48361;SDS011;34510;51.888;5.670;2022-12-08T09:48:17;4.30;;;3.15;;
48361;SDS011;34510;51.888;5.670;2022-12-08T09:53:24;5.20;;;3.92;;
48361;SDS011;34510;51.888;5.670;2022-12-08T09:58:52;5.57;;;2.15;;
48361;SDS011;34510;51.888;5.670;2022-12-08T10:04:00;4.55;;;2.08;;
48361;SDS011;34510;51.888;5.670;2022-12-08T10:09:11;3.75;;;2.60;;
48361;SDS011;34510;51.888;5.670;2022-12-08T10:14:33;4.22;;;2.90;;
48361;SDS011;34510;51.888;5.670;2022-12-08T10:19:39;4.95;;;2.58;;
48361;SDS011;34510;51.888;5.670;2022-12-08T10:24:45;12.15;;;4.18;;
48361;SDS011;34510;51.888;5.670;2022-12-08T10:29:54;4.05;;;2.88;;
48361;SDS011;34510;51.888;5.670;2022-12-08T10:40:04;4.13;;;2.92;;
48361;SDS011;34510;51.888;5.670;2022-12-08T10:50:31;5.40;;;3.95;;
48361;SDS011;34510;51.888;5.670;2022-12-08T11:01:08;10.25;;;4.88;;
48361;SDS011;34510;51.888;5.670;2022-12-08T11:06:15;4.70;;;3.88;;
48361;SDS011;34510;51.888;5.670;2022-12-08T11:11:20;10.07;;;5.90;;
48361;SDS011;34510;51.888;5.670;2022-12-08T11:16:39;6.72;;;5.05;;
48361;SDS011;34510;51.888;5.670;2022-12-08T11:21:43;6.57;;;4.47;;
48361;SDS011;34510;51.888;5.670;2022-12-08T11:26:57;8.90;;;5.70;;
48361;SDS011;34510;51.888;5.670;2022-12-08T11:32:03;5.35;;;3.97;;
48361;SDS011;34510;51.888;5.670;2022-12-08T11:53:19;8.00;;;5.25;;
48361;SDS011;34510;51.888;5.670;2022-12-08T11:58:42;5.25;;;2.70;;
48361;SDS011;34510;51.888;5.670;2022-12-08T12:03:52;1.60;;;1.27;;
48361;SDS011;34510;51.888;5.670;2022-12-08T12:09:12;1.98;;;1.40;;
48361;SDS011;34510;51.888;5.670;2022-12-08T12:14:33;3.42;;;2.00;;
48361;SDS011;34510;51.888;5.670;2022-12-08T12:19:53;1.83;;;1.38;;
48361;SDS011;34510;51.888;5.670;2022-12-08T12:25:00;7.43;;;2.35;;
48361;SDS011;34510;51.888;5.670;2022-12-08T12:30:05;3.30;;;1.63;;
48361;SDS011;34510;51.888;5.670;2022-12-08T12:35:33;4.38;;;2.25;;
48361;SDS011;34510;51.888;5.670;2022-12-08T12:40:38;1.13;;;0.88;;
48361;SDS011;34510;51.888;5.670;2022-12-08T12:45:42;2.42;;;1.13;;
48361;SDS011;34510;51.888;5.670;2022-12-08T12:50:47;2.83;;;1.35;;
48361;SDS011;34510;51.888;5.670;2022-12-08T12:55:54;4.15;;;1.80;;
48361;SDS011;34510;51.888;5.670;2022-12-08T13:06:13;4.82;;;2.00;;
48361;SDS011;34510;51.888;5.670;2022-12-08T13:11:15;4.00;;;2.75;;
48361;SDS011;34510;51.888;5.670;2022-12-08T13:16:23;1.35;;;1.17;;
48361;SDS011;34510;51.888;5.670;2022-12-08T13:21:36;2.05;;;1.48;;
48361;SDS011;34510;51.888;5.670;2022-12-08T13:26:46;2.40;;;1.33;;
48361;SDS011;34510;51.888;5.670;2022-12-08T13:47:21;3.13;;;1.48;;
48361;SDS011;34510;51.888;5.670;2022-12-08T13:58:02;3.78;;;3.00;;
48361;SDS011;34510;51.888;5.670;2022-12-08T14:03:07;5.82;;;2.83;;
48361;SDS011;34510;51.888;5.670;2022-12-08T14:08:27;4.07;;;3.35;;
48361;SDS011;34510;51.888;5.670;2022-12-08T14:13:54;7.00;;;3.90;;
48361;SDS011;34510;51.888;5.670;2022-12-08T14:19:03;7.65;;;5.28;;
48361;SDS011;34510;51.888;5.670;2022-12-08T14:24:07;4.80;;;4.00;;
48361;SDS011;34510;51.888;5.670;2022-12-08T14:29:11;4.90;;;4.03;;
48361;SDS011;34510;51.888;5.670;2022-12-08T14:34:29;7.18;;;3.47;;
48361;SDS011;34510;51.888;5.670;2022-12-08T14:39:40;2.33;;;2.13;;
48361;SDS011;34510;51.888;5.670;2022-12-08T14:44:58;3.35;;;2.80;;
48361;SDS011;34510;51.888;5.670;2022-12-08T14:50:01;3.22;;;2.67;;
48361;SDS011;34510;51.888;5.670;2022-12-08T14:55:05;5.00;;;3.65;;
48361;SDS011;34510;51.888;5.670;2022-12-08T15:00:08;6.20;;;4.97;;
48361;SDS011;34510;51.888;5.670;2022-12-08T15:05:14;13.48;;;4.93;;
48361;SDS011;34510;51.888;5.670;2022-12-08T15:10:27;5.30;;;4.05;;
48361;SDS011;34510;51.888;5.670;2022-12-08T15:15:30;12.20;;;8.18;;
48361;SDS011;34510;51.888;5.670;2022-12-08T15:20:46;10.93;;;7.97;;
48361;SDS011;34510;51.888;5.670;2022-12-08T15:25:49;7.25;;;5.50;;
48361;SDS011;34510;51.888;5.670;2022-12-08T15:30:51;4.72;;;3.83;;
48361;SDS011;34510;51.888;5.670;2022-12-08T15:35:53;105.50;;;94.50;;
48361;SDS011;34510;51.888;5.670;2022-12-08T15:40:55;199.38;;;143.68;;
48361;SDS011;34510;51.888;5.670;2022-12-08T15:45:57;641.97;;;207.70;;
48361;SDS011;34510;51.888;5.670;2022-12-08T15:51:01;687.58;;;219.20;;
48361;SDS011;34510;51.888;5.670;2022-12-08T15:56:03;670.88;;;200.25;;
48361;SDS011;34510;51.888;5.670;2022-12-08T16:01:26;675.88;;;206.85;;
48361;SDS011;34510;51.888;5.670;2022-12-08T16:06:28;627.42;;;200.52;;
48361;SDS011;34510;51.888;5.670;2022-12-08T16:11:50;692.63;;;213.25;;
48361;SDS011;34510;51.888;5.670;2022-12-08T16:17:15;546.85;;;196.02;;
48361;SDS011;34510;51.888;5.670;2022-12-08T16:22:18;590.38;;;212.30;;
48361;SDS011;34510;51.888;5.670;2022-12-08T16:27:40;681.58;;;201.77;;
48361;SDS011;34510;51.888;5.670;2022-12-08T16:33:02;685.38;;;200.32;;
48361;SDS011;34510;51.888;5.670;2022-12-08T16:38:04;615.90;;;191.75;;
48361;SDS011;34510;51.888;5.670;2022-12-08T16:43:06;669.45;;;201.35;;
48361;SDS011;34510;51.888;5.670;2022-12-08T16:48:09;684.92;;;195.93;;
48361;SDS011;34510;51.888;5.670;2022-12-08T16:53:14;698.50;;;219.40;;
48361;SDS011;34510;51.888;5.670;2022-12-08T16:58:15;691.97;;;207.77;;
48361;SDS011;34510;51.888;5.670;2022-12-08T17:03:19;686.00;;;194.93;;
48361;SDS011;34510;51.888;5.670;2022-12-08T17:08:21;694.15;;;218.45;;
48361;SDS011;34510;51.888;5.670;2022-12-08T17:13:22;691.45;;;208.80;;
48361;SDS011;34510;51.888;5.670;2022-12-08T17:18:24;694.30;;;214.85;;
48361;SDS011;34510;51.888;5.670;2022-12-08T17:23:26;690.22;;;215.23;;
48361;SDS011;34510;51.888;5.670;2022-12-08T17:28:28;693.42;;;206.63;;
48361;SDS011;34510;51.888;5.670;2022-12-08T17:33:50;694.25;;;214.07;;
48361;SDS011;34510;51.888;5.670;2022-12-08T17:38:53;699.83;;;230.50;;
48361;SDS011;34510;51.888;5.670;2022-12-08T17:43:55;694.20;;;223.35;;
48361;SDS011;34510;51.888;5.670;2022-12-08T17:48:57;694.85;;;218.05;;
48361;SDS011;34510;51.888;5.670;2022-12-08T17:53:59;130.60;;;116.75;;
48361;SDS011;34510;51.888;5.670;2022-12-08T17:59:01;166.35;;;142.52;;
48361;SDS011;34510;51.888;5.670;2022-12-08T18:04:03;693.03;;;212.57;;
48361;SDS011;34510;51.888;5.670;2022-12-08T18:09:06;688.33;;;224.95;;
48361;SDS011;34510;51.888;5.670;2022-12-08T18:14:08;287.80;;;185.02;;
48361;SDS011;34510;51.888;5.670;2022-12-08T18:19:11;282.75;;;183.50;;
48361;SDS011;34510;51.888;5.670;2022-12-08T18:24:17;319.58;;;194.43;;
48361;SDS011;34510;51.888;5.670;2022-12-08T18:29:20;377.25;;;182.68;;
48361;SDS011;34510;51.888;5.670;2022-12-08T18:34:22;363.08;;;180.05;;
48361;SDS011;34510;51.888;5.670;2022-12-08T18:39:25;652.83;;;222.95;;
48361;SDS011;34510;51.888;5.670;2022-12-08T18:44:27;691.40;;;224.35;;
48361;SDS011;34510;51.888;5.670;2022-12-08T18:49:29;691.30;;;224.93;;
48361;SDS011;34510;51.888;5.670;2022-12-08T18:54:31;552.80;;;209.13;;
48361;SDS011;34510;51.888;5.670;2022-12-08T18:59:53;693.60;;;230.90;;
48361;SDS011;34510;51.888;5.670;2022-12-08T19:04:55;691.10;;;213.38;;
48361;SDS011;34510;51.888;5.670;2022-12-08T19:09:57;692.08;;;212.73;;
48361;SDS011;34510;51.888;5.670;2022-12-08T19:14:59;692.88;;;218.75;;
48361;SDS011;34510;51.888;5.670;2022-12-08T19:20:02;480.75;;;187.55;;
48361;SDS011;34510;51.888;5.670;2022-12-08T19:25:04;486.50;;;208.98;;
48361;SDS011;34510;51.888;5.670;2022-12-08T19:30:06;494.27;;;202.60;;
48361;SDS011;34510;51.888;5.670;2022-12-08T19:35:09;692.28;;;230.73;;
48361;SDS011;34510;51.888;5.670;2022-12-08T19:40:11;689.72;;;225.07;;
48361;SDS011;34510;51.888;5.670;2022-12-08T19:45:33;622.25;;;221.98;;
48361;SDS011;34510;51.888;5.670;2022-12-08T19:50:35;795.95;;;281.33;;
48361;SDS011;34510;51.888;5.670;2022-12-08T19:55:38;699.45;;;232.77;;
48361;SDS011;34510;51.888;5.670;2022-12-08T20:00:40;694.13;;;227.40;;
48361;SDS011;34510;51.888;5.670;2022-12-08T20:05:43;689.25;;;221.43;;
48361;SDS011;34510;51.888;5.670;2022-12-08T20:10:45;691.92;;;221.32;;
48361;SDS011;34510;51.888;5.670;2022-12-08T20:15:47;693.28;;;232.77;;
48361;SDS011;34510;51.888;5.670;2022-12-08T20:20:49;696.97;;;237.80;;
48361;SDS011;34510;51.888;5.670;2022-12-08T20:25:52;703.97;;;246.57;;
48361;SDS011;34510;51.888;5.670;2022-12-08T20:30:53;703.90;;;254.57;;
48361;SDS011;34510;51.888;5.670;2022-12-08T20:35:59;699.53;;;231.80;;
48361;SDS011;34510;51.888;5.670;2022-12-08T20:41:01;667.05;;;229.30;;
48361;SDS011;34510;51.888;5.670;2022-12-08T20:46:04;696.08;;;219.52;;
48361;SDS011;34510;51.888;5.670;2022-12-08T20:51:06;694.08;;;230.35;;
48361;SDS011;34510;51.888;5.670;2022-12-08T20:56:12;698.35;;;231.43;;
48361;SDS011;34510;51.888;5.670;2022-12-08T21:01:15;701.47;;;235.35;;
48361;SDS011;34510;51.888;5.670;2022-12-08T21:06:21;708.10;;;233.23;;
48361;SDS011;34510;51.888;5.670;2022-12-08T21:11:23;712.50;;;234.75;;
48361;SDS011;34510;51.888;5.670;2022-12-08T21:16:25;704.90;;;235.45;;
48361;SDS011;34510;51.888;5.670;2022-12-08T21:21:27;705.80;;;229.40;;
48361;SDS011;34510;51.888;5.670;2022-12-08T21:26:29;711.58;;;250.77;;
48361;SDS011;34510;51.888;5.670;2022-12-08T21:31:32;709.78;;;245.70;;
48361;SDS011;34510;51.888;5.670;2022-12-08T21:36:34;708.08;;;244.52;;
48361;SDS011;34510;51.888;5.670;2022-12-08T21:41:36;703.20;;;235.15;;
48361;SDS011;34510;51.888;5.670;2022-12-08T21:46:56;467.75;;;211.52;;
48361;SDS011;34510;51.888;5.670;2022-12-08T21:51:58;704.65;;;247.60;;
48361;SDS011;34510;51.888;5.670;2022-12-08T21:57:00;707.42;;;243.13;;
48361;SDS011;34510;51.888;5.670;2022-12-08T22:02:02;623.85;;;231.38;;
48361;SDS011;34510;51.888;5.670;2022-12-08T22:07:07;490.08;;;218.88;;
48361;SDS011;34510;51.888;5.670;2022-12-08T22:12:10;536.63;;;222.18;;
48361;SDS011;34510;51.888;5.670;2022-12-08T22:17:17;706.03;;;239.63;;
48361;SDS011;34510;51.888;5.670;2022-12-08T22:22:19;707.60;;;241.73;;
48361;SDS011;34510;51.888;5.670;2022-12-08T22:27:21;703.45;;;226.85;;
48361;SDS011;34510;51.888;5.670;2022-12-08T22:32:23;713.90;;;248.38;;
48361;SDS011;34510;51.888;5.670;2022-12-08T22:37:25;712.47;;;247.15;;
48361;SDS011;34510;51.888;5.670;2022-12-08T22:42:27;709.55;;;230.52;;
48361;SDS011;34510;51.888;5.670;2022-12-08T22:47:29;718.95;;;260.55;;
48361;SDS011;34510;51.888;5.670;2022-12-08T22:52:31;709.47;;;242.98;;
48361;SDS011;34510;51.888;5.670;2022-12-08T22:57:33;707.72;;;235.45;;
48361;SDS011;34510;51.888;5.670;2022-12-08T23:02:36;713.85;;;248.48;;
48361;SDS011;34510;51.888;5.670;2022-12-08T23:07:38;710.97;;;240.23;;
48361;SDS011;34510;51.888;5.670;2022-12-08T23:12:40;702.95;;;228.18;;
48361;SDS011;34510;51.888;5.670;2022-12-08T23:17:42;707.33;;;231.07;;
48361;SDS011;34510;51.888;5.670;2022-12-08T23:22:43;712.75;;;243.82;;
48361;SDS011;34510;51.888;5.670;2022-12-08T23:27:46;710.33;;;239.18;;
48361;SDS011;34510;51.888;5.670;2022-12-08T23:32:48;709.65;;;236.73;;
48361;SDS011;34510;51.888;5.670;2022-12-08T23:37:50;701.03;;;226.80;;
48361;SDS011;34510;51.888;5.670;2022-12-08T23:42:54;710.85;;;247.77;;
48361;SDS011;34510;51.888;5.670;2022-12-08T23:47:56;708.80;;;233.00;;
48361;SDS011;34510;51.888;5.670;2022-12-08T23:52:57;708.13;;;242.07;;
48361;SDS011;34510;51.888;5.670;2022-12-08T23:57:59;710.55;;;237.95;;
